createdAt,value
2022-10-23T00:00:33.660Z,14.63
2022-10-23T00:03:19.178Z,10.07
2022-10-23T00:06:05.511Z,13.00
2022-10-23T00:08:51.201Z,13.50
2022-10-23T00:11:36.864Z,12.73
2022-10-23T00:14:24.880Z,12.52
2022-10-23T00:17:12.371Z,10.70
2022-10-23T00:19:57.730Z,10.57
2022-10-23T00:22:43.257Z,11.70
2022-10-23T00:25:28.577Z,13.05
2022-10-23T00:28:14.112Z,12.85
2022-10-23T00:31:03.093Z,15.18
2022-10-23T00:33:49.202Z,12.65
2022-10-23T00:36:34.822Z,13.63
2022-10-23T00:39:20.371Z,10.32
2022-10-23T00:42:06.332Z,10.40
2022-10-23T00:44:52.203Z,11.10
2022-10-23T00:47:38.404Z,12.57
2022-10-23T00:50:25.947Z,8.95
2022-10-23T00:53:12.963Z,9.00
2022-10-23T00:55:59.957Z,9.35
2022-10-23T00:58:45.695Z,12.10
2022-10-23T01:01:31.320Z,14.85
2022-10-23T01:04:17.272Z,10.30
2022-10-23T01:07:05.530Z,15.90
2022-10-23T01:10:06.669Z,12.10
2022-10-23T01:12:55.232Z,13.25
2022-10-23T01:15:55.722Z,9.75
2022-10-23T01:18:53.387Z,10.07
2022-10-23T01:21:55.075Z,7.75
2022-10-23T01:24:59.580Z,7.07
2022-10-23T01:27:52.864Z,8.07
2022-10-23T01:30:44.349Z,10.35
2022-10-23T01:33:57.529Z,9.32
2022-10-23T01:36:48.919Z,7.13
2022-10-23T01:39:38.794Z,9.60
2022-10-23T01:42:31.289Z,7.70
2022-10-23T01:45:28.589Z,11.18
2022-10-23T01:48:18.120Z,9.43
2022-10-23T01:51:08.937Z,11.52
2022-10-23T01:53:59.608Z,11.00
2022-10-23T01:56:49.293Z,13.10
2022-10-23T01:59:46.638Z,14.43
2022-10-23T02:02:34.157Z,12.57
2022-10-23T02:05:25.395Z,12.77
2022-10-23T02:08:11.089Z,13.07
2022-10-23T02:11:21.088Z,11.82
2022-10-23T02:14:29.558Z,10.70
2022-10-23T02:17:19.595Z,12.80
2022-10-23T02:20:15.718Z,13.52
2022-10-23T02:23:29.013Z,13.95
2022-10-23T02:26:17.739Z,14.73
2022-10-23T02:32:02.231Z,13.90
2022-10-23T02:34:48.246Z,14.15
2022-10-23T02:37:34.208Z,10.30
2022-10-23T02:40:24.198Z,11.40
2022-10-23T02:43:25.459Z,12.52
2022-10-23T02:46:22.648Z,13.35
2022-10-23T02:49:11.328Z,10.63
2022-10-23T02:52:17.483Z,11.10
2022-10-23T02:55:25.843Z,10.05
2022-10-23T02:58:29.209Z,9.73
2022-10-23T03:01:19.969Z,12.60
2022-10-23T03:04:08.923Z,9.63
2022-10-23T03:06:56.403Z,8.95
2022-10-23T03:09:41.894Z,14.45
2022-10-23T03:12:27.173Z,11.50
2022-10-23T03:15:13.044Z,9.98
2022-10-23T03:17:58.894Z,11.02
2022-10-23T03:20:44.321Z,9.40
2022-10-23T03:23:29.687Z,8.65
2022-10-23T03:26:16.287Z,10.90
2022-10-23T03:29:02.080Z,8.40
2022-10-23T03:31:47.543Z,8.85
2022-10-23T03:34:34.842Z,7.97
2022-10-23T03:37:22.378Z,7.05
2022-10-23T03:40:09.334Z,6.35
2022-10-23T03:42:54.608Z,6.45
2022-10-23T03:45:40.447Z,7.15
2022-10-23T03:48:27.987Z,7.45
2022-10-23T03:51:17.891Z,7.47
2022-10-23T03:54:04.107Z,8.18
2022-10-23T03:56:53.736Z,12.18
2022-10-23T03:59:44.365Z,8.77
2022-10-23T04:02:30.307Z,6.60
2022-10-23T04:05:16.292Z,6.80
2022-10-23T04:08:11.229Z,5.55
2022-10-23T04:10:57.179Z,7.35
2022-10-23T04:13:53.314Z,6.88
2022-10-23T04:16:39.303Z,7.00
2022-10-23T04:19:24.788Z,5.93
2022-10-23T04:22:14.205Z,6.60
2022-10-23T04:25:00.483Z,6.40
2022-10-23T04:27:48.638Z,6.20
2022-10-23T04:30:37.172Z,7.95
2022-10-23T04:33:23.536Z,7.78
2022-10-23T04:36:10.241Z,8.23
2022-10-23T04:38:57.636Z,7.75
2022-10-23T04:41:43.254Z,6.93
2022-10-23T04:44:28.908Z,6.95
2022-10-23T04:47:14.090Z,6.55
2022-10-23T04:50:12.422Z,9.88
2022-10-23T04:53:16.782Z,7.47
2022-10-23T04:56:21.726Z,8.48
2022-10-23T04:59:10.460Z,8.40
2022-10-23T05:02:02.563Z,7.97
2022-10-23T05:04:48.760Z,9.40
2022-10-23T05:07:53.213Z,7.45
2022-10-23T05:11:02.548Z,9.02
2022-10-23T05:13:48.213Z,9.23
2022-10-23T05:16:46.755Z,10.68
2022-10-23T05:19:40.284Z,10.20
2022-10-23T05:22:30.582Z,10.13
2022-10-23T05:25:16.106Z,10.10
2022-10-23T05:30:53.879Z,11.32
2022-10-23T05:33:44.536Z,11.38
2022-10-23T05:36:30.666Z,10.50
2022-10-23T05:39:16.722Z,10.20
2022-10-23T05:42:02.591Z,9.55
2022-10-23T05:44:47.826Z,9.55
2022-10-23T05:48:11.353Z,12.20
2022-10-23T05:51:23.830Z,13.45
2022-10-23T05:54:33.990Z,10.23
2022-10-23T05:57:44.436Z,10.05
2022-10-23T06:00:32.749Z,10.02
2022-10-23T06:03:40.640Z,11.25
2022-10-23T06:06:30.307Z,12.60
2022-10-23T06:09:16.380Z,12.15
2022-10-23T06:12:05.325Z,11.98
2022-10-23T06:14:51.997Z,11.23
2022-10-23T06:17:39.779Z,9.60
2022-10-23T06:20:28.754Z,11.00
2022-10-23T06:23:24.909Z,9.63
2022-10-23T06:26:34.242Z,12.88
2022-10-23T06:29:38.969Z,12.95
2022-10-23T06:32:34.549Z,10.25
2022-10-23T06:35:30.216Z,11.13
2022-10-23T06:38:17.117Z,13.25
2022-10-23T06:41:15.074Z,11.20
2022-10-23T06:44:02.431Z,11.68
2022-10-23T06:47:02.173Z,10.48
2022-10-23T06:53:05.423Z,15.80
2022-10-23T06:55:55.290Z,12.15
2022-10-23T06:58:42.228Z,10.23
2022-10-23T07:01:35.981Z,9.68
2022-10-23T07:04:21.632Z,9.30
2022-10-23T07:07:07.737Z,13.38
2022-10-23T07:10:02.479Z,10.15
2022-10-23T07:13:01.119Z,16.25
2022-10-23T07:15:51.742Z,19.75
2022-10-23T07:18:45.563Z,11.33
2022-10-23T07:21:46.828Z,11.73
2022-10-23T07:25:07.495Z,11.57
2022-10-23T07:28:10.502Z,9.45
2022-10-23T07:31:01.138Z,11.60
2022-10-23T07:34:06.808Z,9.30
2022-10-23T07:36:54.868Z,9.38
2022-10-23T07:39:40.766Z,8.38
2022-10-23T07:42:26.691Z,8.55
2022-10-23T07:45:12.759Z,10.30
2022-10-23T07:48:02.052Z,10.45
2022-10-23T07:51:03.120Z,8.55
2022-10-23T07:53:49.775Z,10.75
2022-10-23T07:56:56.020Z,12.50
2022-10-23T07:59:47.663Z,10.95
2022-10-23T08:02:39.301Z,10.85
2022-10-23T08:05:26.459Z,13.15
2022-10-23T08:08:17.872Z,8.20
2022-10-23T08:11:07.534Z,9.02
2022-10-23T08:14:06.112Z,10.80
2022-10-23T08:16:52.326Z,11.00
2022-10-23T08:19:39.096Z,7.75
2022-10-23T08:22:24.424Z,10.57
2022-10-23T08:25:10.639Z,9.45
2022-10-23T08:27:56.356Z,10.73
2022-10-23T08:30:43.494Z,10.02
2022-10-23T08:33:30.790Z,10.90
2022-10-23T08:36:21.008Z,10.93
2022-10-23T08:39:07.593Z,14.38
2022-10-23T08:41:54.724Z,13.73
2022-10-23T08:44:51.957Z,15.55
2022-10-23T08:47:46.438Z,12.80
2022-10-23T08:51:23.481Z,16.35
2022-10-23T08:54:16.822Z,13.20
2022-10-23T08:57:09.320Z,11.43
2022-10-23T09:00:01.120Z,11.77
2022-10-23T09:02:50.937Z,11.95
2022-10-23T09:06:09.420Z,28.15
2022-10-23T09:09:10.392Z,28.15
2022-10-23T09:12:15.242Z,27.17
2022-10-23T09:15:28.226Z,20.98
2022-10-23T09:18:16.539Z,20.50
2022-10-23T09:21:02.361Z,13.50
2022-10-23T09:23:47.846Z,89.55
2022-10-23T09:26:33.527Z,12.13
2022-10-23T09:29:28.836Z,15.77
2022-10-23T09:32:14.730Z,20.25
2022-10-23T09:35:00.824Z,34.67
2022-10-23T09:37:49.175Z,24.17
2022-10-23T09:40:42.830Z,51.17
2022-10-23T09:43:29.422Z,26.45
2022-10-23T09:46:22.257Z,23.27
2022-10-23T09:49:17.785Z,16.55
2022-10-23T09:52:13.372Z,15.98
2022-10-23T09:55:02.486Z,17.92
2022-10-23T09:57:49.547Z,20.40
2022-10-23T10:00:48.547Z,18.10
2022-10-23T10:03:37.418Z,47.00
2022-10-23T10:06:32.582Z,38.03
2022-10-23T10:09:18.352Z,34.25
2022-10-23T10:12:43.546Z,22.75
2022-10-23T10:15:58.033Z,24.10
2022-10-23T10:18:56.440Z,21.20
2022-10-23T10:22:01.036Z,27.08
2022-10-23T10:24:54.924Z,24.40
2022-10-23T10:27:57.476Z,29.35
2022-10-23T10:31:15.332Z,24.40
2022-10-23T10:34:19.160Z,21.50
2022-10-23T10:37:23.360Z,25.75
2022-10-23T10:40:47.611Z,64.43
2022-10-23T10:43:41.480Z,23.73
2022-10-23T10:46:36.276Z,17.45
2022-10-23T10:49:39.019Z,13.02
2022-10-23T10:53:12.293Z,12.43
2022-10-23T10:56:01.956Z,13.07
2022-10-23T10:58:52.916Z,11.95
2022-10-23T11:01:48.279Z,9.25
2022-10-23T11:04:43.723Z,10.38
2022-10-23T11:07:37.404Z,12.52
2022-10-23T11:10:23.532Z,8.70
2022-10-23T11:13:28.442Z,10.48
2022-10-23T11:16:28.356Z,12.90
2022-10-23T11:19:47.091Z,13.43
2022-10-23T11:22:58.335Z,13.13
2022-10-23T11:26:03.994Z,13.50
2022-10-23T11:29:23.482Z,13.07
2022-10-23T11:35:43.125Z,11.70
2022-10-23T11:38:38.268Z,10.52
2022-10-23T11:41:34.093Z,11.38
2022-10-23T11:44:44.768Z,11.77
2022-10-23T11:47:39.743Z,10.23
2022-10-23T11:50:29.638Z,12.02
2022-10-23T11:53:33.567Z,9.23
2022-10-23T11:56:19.661Z,13.75
2022-10-23T11:59:30.576Z,9.23
2022-10-23T12:02:26.958Z,12.75
2022-10-23T12:05:32.048Z,9.90
2022-10-23T12:08:27.179Z,8.98
2022-10-23T12:11:48.053Z,10.23
2022-10-23T12:14:35.807Z,7.45
2022-10-23T12:17:24.646Z,6.03
2022-10-23T12:20:11.937Z,8.77
2022-10-23T12:23:12.561Z,6.53
2022-10-23T12:26:13.473Z,10.45
2022-10-23T12:29:10.314Z,65.97
2022-10-23T12:32:14.592Z,19.85
2022-10-23T12:35:21.578Z,12.10
2022-10-23T12:38:10.565Z,10.50
2022-10-23T12:41:11.469Z,8.57
2022-10-23T12:44:05.310Z,14.18
2022-10-23T12:46:55.638Z,10.80
2022-10-23T12:49:49.458Z,11.38
2022-10-23T12:52:39.718Z,8.63
2022-10-23T12:55:30.936Z,6.75
2022-10-23T12:58:24.746Z,9.38
2022-10-23T13:01:25.130Z,6.45
2022-10-23T13:04:10.617Z,10.25
2022-10-23T13:06:58.735Z,12.15
2022-10-23T13:09:45.985Z,9.00
2022-10-23T13:12:36.428Z,11.60
2022-10-23T13:15:23.925Z,11.35
2022-10-23T13:18:14.524Z,12.88
2022-10-23T13:23:53.347Z,9.95
2022-10-23T13:26:47.599Z,10.20
2022-10-23T13:29:34.857Z,10.68
2022-10-23T13:32:24.372Z,10.38
2022-10-23T13:35:22.540Z,8.82
2022-10-23T13:38:09.104Z,18.10
2022-10-23T13:41:02.530Z,6.63
2022-10-23T13:43:48.290Z,9.18
2022-10-23T13:46:33.921Z,7.32
2022-10-23T13:49:19.941Z,9.15
2022-10-23T13:52:12.878Z,6.25
2022-10-23T13:54:58.578Z,9.50
2022-10-23T13:57:44.278Z,8.85
2022-10-23T14:00:30.144Z,9.20
2022-10-23T14:03:16.126Z,7.88
2022-10-23T14:06:04.657Z,6.72
2022-10-23T14:08:50.662Z,7.22
2022-10-23T14:11:36.758Z,5.82
2022-10-23T14:14:22.362Z,6.47
2022-10-23T14:17:07.909Z,7.68
2022-10-23T14:19:53.547Z,6.53
2022-10-23T14:22:39.531Z,10.27
2022-10-23T14:25:25.001Z,10.18
2022-10-23T14:28:10.778Z,8.55
2022-10-23T14:30:56.648Z,5.10
2022-10-23T14:33:44.160Z,5.88
2022-10-23T14:36:38.550Z,6.55
2022-10-23T14:39:35.357Z,9.55
2022-10-23T14:42:21.227Z,7.72
2022-10-23T14:45:07.296Z,10.13
2022-10-23T14:47:52.751Z,8.70
2022-10-23T14:50:43.362Z,10.63
2022-10-23T14:53:29.125Z,14.93
2022-10-23T14:56:15.454Z,8.65
2022-10-23T14:59:04.767Z,14.73
2022-10-23T15:01:51.015Z,17.27
2022-10-23T15:04:36.973Z,17.60
2022-10-23T15:07:23.177Z,12.88
2022-10-23T15:10:09.806Z,15.77
2022-10-23T15:12:55.272Z,7.57
2022-10-23T15:15:40.792Z,11.32
2022-10-23T15:18:27.661Z,11.32
2022-10-23T15:21:13.932Z,13.15
2022-10-23T15:24:01.295Z,9.63
2022-10-23T15:26:47.391Z,9.65
2022-10-23T15:29:35.206Z,9.27
2022-10-23T15:32:21.023Z,12.18
2022-10-23T15:35:06.564Z,8.27
2022-10-23T15:37:52.358Z,9.45
2022-10-23T15:40:37.841Z,6.78
2022-10-23T15:43:23.258Z,5.80
2022-10-23T15:46:08.978Z,11.70
2022-10-23T15:48:54.720Z,7.43
2022-10-23T15:51:44.604Z,11.68
2022-10-23T15:54:33.055Z,17.35
2022-10-23T15:57:19.448Z,32.25
2022-10-23T16:00:09.816Z,26.05
2022-10-23T16:02:55.738Z,23.65
2022-10-23T16:05:42.425Z,28.95
2022-10-23T16:08:28.345Z,21.02
2022-10-23T16:11:23.325Z,22.13
2022-10-23T16:14:13.053Z,11.35
2022-10-23T16:16:59.660Z,13.05
2022-10-23T16:19:46.312Z,35.65
2022-10-23T16:22:34.793Z,23.85
2022-10-23T16:25:21.690Z,20.60
2022-10-23T16:28:08.671Z,16.60
2022-10-23T16:30:56.372Z,13.18
2022-10-23T16:33:42.518Z,12.50
2022-10-23T16:36:29.545Z,19.60
2022-10-23T16:39:26.940Z,12.00
2022-10-23T16:42:41.989Z,11.02
2022-10-23T16:45:44.639Z,10.68
2022-10-23T16:48:32.813Z,15.18
2022-10-23T16:51:27.520Z,18.85
2022-10-23T16:54:23.055Z,19.02
2022-10-23T16:57:14.288Z,21.02
2022-10-23T17:00:08.904Z,16.70
2022-10-23T17:02:56.964Z,31.35
2022-10-23T17:05:44.022Z,22.52
2022-10-23T17:08:29.877Z,22.75
2022-10-23T17:11:37.518Z,24.13
2022-10-23T17:14:29.136Z,51.42
2022-10-23T17:17:14.831Z,25.58
2022-10-23T17:20:01.014Z,27.75
2022-10-23T17:22:47.299Z,29.67
2022-10-23T17:25:32.560Z,22.67
2022-10-23T17:28:18.287Z,21.90
2022-10-23T17:31:04.139Z,20.92
2022-10-23T17:33:52.261Z,18.65
2022-10-23T17:36:42.707Z,15.80
2022-10-23T17:39:29.562Z,13.30
2022-10-23T17:42:16.023Z,13.48
2022-10-23T17:45:01.672Z,19.17
2022-10-23T17:47:47.546Z,12.82
2022-10-23T17:50:32.962Z,18.48
2022-10-23T17:53:18.195Z,12.10
2022-10-23T17:56:05.669Z,11.20
2022-10-23T17:58:53.462Z,11.85
2022-10-23T18:01:39.929Z,20.17
2022-10-23T18:04:26.701Z,56.10
2022-10-23T18:07:13.153Z,76.15
2022-10-23T18:09:58.846Z,63.08
2022-10-23T18:12:44.425Z,55.92
2022-10-23T18:15:29.916Z,43.63
2022-10-23T18:18:15.399Z,51.30
2022-10-23T18:21:02.756Z,71.38
2022-10-23T18:23:49.196Z,67.15
2022-10-23T18:26:35.498Z,93.57
2022-10-23T18:29:21.940Z,60.88
2022-10-23T18:32:09.531Z,35.72
2022-10-23T18:34:55.976Z,30.60
2022-10-23T18:37:42.395Z,35.40
2022-10-23T18:40:29.931Z,32.08
2022-10-23T18:43:31.255Z,34.10
2022-10-23T18:46:23.206Z,29.30
2022-10-23T18:49:10.575Z,32.13
2022-10-23T18:51:58.418Z,24.60
2022-10-23T18:54:43.904Z,24.10
2022-10-23T18:57:29.369Z,21.50
2022-10-23T19:00:15.300Z,26.40
2022-10-23T19:03:01.129Z,23.65
2022-10-23T19:05:48.807Z,18.98
2022-10-23T19:08:41.255Z,22.65
2022-10-23T19:11:29.152Z,22.80
2022-10-23T19:14:16.506Z,22.33
2022-10-23T19:17:32.080Z,35.45
2022-10-23T19:20:21.132Z,30.05
2022-10-23T19:23:09.942Z,28.48
2022-10-23T19:25:58.348Z,33.63
2022-10-23T19:31:38.528Z,42.70
2022-10-23T19:34:25.231Z,43.92
2022-10-23T19:39:57.613Z,31.75
2022-10-23T19:42:44.530Z,36.47
2022-10-23T19:48:17.065Z,34.85
2022-10-23T19:51:03.015Z,33.50
2022-10-23T19:53:48.572Z,40.33
2022-10-23T19:56:34.204Z,51.78
2022-10-23T19:59:21.113Z,42.53
2022-10-23T20:02:08.646Z,29.70
2022-10-23T20:04:54.227Z,23.00
2022-10-23T20:07:40.128Z,16.27
2022-10-23T20:10:26.003Z,15.68
2022-10-23T20:13:20.198Z,69.45
2022-10-23T20:16:07.347Z,48.78
2022-10-23T20:18:54.241Z,55.05
2022-10-23T20:21:42.610Z,57.20
2022-10-23T20:24:28.631Z,47.47
2022-10-23T20:27:14.943Z,32.22
2022-10-23T20:30:00.807Z,23.13
2022-10-23T20:32:46.816Z,22.42
2022-10-23T20:35:42.948Z,18.13
2022-10-23T20:38:29.169Z,15.45
2022-10-23T20:41:14.464Z,17.35
2022-10-23T20:44:00.680Z,12.55
2022-10-23T20:46:46.697Z,19.30
2022-10-23T20:49:33.495Z,19.90
2022-10-23T20:52:18.929Z,17.70
2022-10-23T20:55:04.889Z,17.85
2022-10-23T20:57:51.440Z,20.33
2022-10-23T21:00:36.936Z,19.17
2022-10-23T21:03:22.805Z,15.88
2022-10-23T21:06:15.075Z,15.82
2022-10-23T21:09:04.317Z,16.83
2022-10-23T21:11:50.042Z,14.40
2022-10-23T21:14:36.234Z,16.00
2022-10-23T21:17:21.919Z,31.30
2022-10-23T21:20:07.729Z,56.03
2022-10-23T21:22:56.375Z,87.22
2022-10-23T21:25:43.416Z,72.13
2022-10-23T21:28:29.399Z,28.48
2022-10-23T21:31:15.545Z,16.25
2022-10-23T21:34:01.137Z,15.02
2022-10-23T21:39:52.527Z,13.15
2022-10-23T21:42:38.422Z,14.30
2022-10-23T21:45:23.962Z,13.23
2022-10-23T21:48:09.669Z,10.10
2022-10-23T21:50:59.730Z,12.15
2022-10-23T21:53:45.015Z,12.80
2022-10-23T21:56:37.971Z,11.82
2022-10-23T21:59:27.852Z,15.43
2022-10-23T22:02:16.124Z,11.52
2022-10-23T22:05:01.758Z,13.95
2022-10-23T22:07:48.195Z,13.10
2022-10-23T22:10:35.147Z,13.85
2022-10-23T22:13:20.709Z,42.05
2022-10-23T22:16:05.982Z,46.47
2022-10-23T22:18:51.685Z,39.03
2022-10-23T22:21:37.596Z,31.30
2022-10-23T22:24:23.143Z,31.48
2022-10-23T22:27:08.606Z,19.00
2022-10-23T22:29:54.451Z,17.65
2022-10-23T22:32:40.262Z,14.88
2022-10-23T22:35:25.531Z,14.32
2022-10-23T22:38:11.005Z,13.15
2022-10-23T22:40:56.553Z,10.55
2022-10-23T22:43:41.959Z,16.27
2022-10-23T22:46:28.663Z,12.05
2022-10-23T22:49:14.466Z,12.27
2022-10-23T22:51:59.973Z,11.70
2022-10-23T22:54:45.462Z,11.10
2022-10-23T22:57:30.837Z,11.20
2022-10-23T23:00:16.759Z,12.07
2022-10-23T23:03:02.339Z,15.02
2022-10-23T23:05:48.390Z,12.88
2022-10-23T23:08:35.177Z,10.85
2022-10-23T23:11:22.489Z,8.30
2022-10-23T23:14:08.153Z,11.43
2022-10-23T23:16:53.548Z,11.13
2022-10-23T23:19:39.298Z,13.10
2022-10-23T23:25:10.452Z,8.02
2022-10-23T23:27:56.284Z,14.45
2022-10-23T23:30:43.049Z,8.57
2022-10-23T23:33:28.389Z,10.80
2022-10-23T23:36:17.385Z,11.30
2022-10-23T23:41:55.862Z,11.38
2022-10-23T23:44:50.275Z,9.73
2022-10-23T23:47:47.186Z,15.02
2022-10-23T23:50:32.986Z,15.60
2022-10-23T23:53:18.651Z,13.27
2022-10-23T23:56:04.361Z,13.25
2022-10-23T23:58:49.964Z,12.05
